createdAt,value
2023-01-25T00:00:11.679Z,11.27
2023-01-25T00:03:15.362Z,13.48
2023-01-25T00:06:18.548Z,13.47
2023-01-25T00:09:22.237Z,12.25
2023-01-25T00:12:25.596Z,10.63
2023-01-25T00:15:28.846Z,12.15
2023-01-25T00:18:32.278Z,11.13
2023-01-25T00:21:36.784Z,13.00
2023-01-25T00:24:40.059Z,12.02
2023-01-25T00:27:43.207Z,13.93
2023-01-25T00:30:47.136Z,12.83
2023-01-25T00:33:57.289Z,10.75
2023-01-25T00:37:03.981Z,15.25
2023-01-25T00:40:07.520Z,11.70
2023-01-25T00:43:14.683Z,15.00
2023-01-25T00:46:19.029Z,13.75
2023-01-25T00:49:24.861Z,13.93
2023-01-25T00:52:28.756Z,11.75
2023-01-25T00:55:32.092Z,13.63
2023-01-25T00:58:35.379Z,15.68
2023-01-25T01:01:42.771Z,15.13
2023-01-25T01:04:47.045Z,13.80
2023-01-25T01:07:50.739Z,15.73
2023-01-25T01:11:07.380Z,14.82
2023-01-25T01:14:12.449Z,15.05
2023-01-25T01:17:15.666Z,12.88
2023-01-25T01:20:18.925Z,14.47
2023-01-25T01:23:22.139Z,13.65
2023-01-25T01:26:25.793Z,12.65
2023-01-25T01:29:29.023Z,14.05
2023-01-25T01:32:32.450Z,13.73
2023-01-25T01:35:38.120Z,11.90
2023-01-25T01:38:42.116Z,13.07
2023-01-25T01:41:45.373Z,13.15
2023-01-25T01:44:54.381Z,14.63
2023-01-25T01:47:59.666Z,12.77
2023-01-25T01:51:39.383Z,13.32
2023-01-25T01:54:52.713Z,14.00
2023-01-25T01:57:59.310Z,12.43
2023-01-25T02:01:05.840Z,12.75
2023-01-25T02:04:09.446Z,15.55
2023-01-25T02:07:23.873Z,13.98
2023-01-25T02:10:29.649Z,13.57
2023-01-25T02:13:34.072Z,14.82
2023-01-25T02:16:37.417Z,14.00
2023-01-25T02:19:58.839Z,14.80
2023-01-25T02:23:37.501Z,12.13
2023-01-25T02:26:41.037Z,14.13
2023-01-25T02:29:46.530Z,13.50
2023-01-25T02:32:49.891Z,11.97
2023-01-25T02:36:08.464Z,12.35
2023-01-25T02:39:20.273Z,16.42
2023-01-25T02:42:24.054Z,15.05
2023-01-25T02:45:30.358Z,17.23
2023-01-25T02:48:33.709Z,16.88
2023-01-25T02:51:39.959Z,13.75
2023-01-25T02:54:43.209Z,16.67
2023-01-25T02:57:46.467Z,13.40
2023-01-25T03:00:55.641Z,14.70
2023-01-25T03:03:59.231Z,14.23
2023-01-25T03:07:03.157Z,14.07
2023-01-25T03:10:07.523Z,15.50
2023-01-25T03:13:12.452Z,17.58
2023-01-25T03:16:15.900Z,16.00
2023-01-25T03:19:20.709Z,15.05
2023-01-25T03:22:24.326Z,13.70
2023-01-25T03:25:28.429Z,14.43
2023-01-25T03:28:39.144Z,14.02
2023-01-25T03:31:42.621Z,13.73
2023-01-25T03:34:46.055Z,14.98
2023-01-25T03:37:50.321Z,15.77
2023-01-25T03:40:55.046Z,15.02
2023-01-25T03:43:59.986Z,14.27
2023-01-25T03:47:03.622Z,14.75
2023-01-25T03:50:07.889Z,14.50
2023-01-25T03:53:31.115Z,13.75
2023-01-25T03:56:43.851Z,14.73
2023-01-25T03:59:59.813Z,17.17
2023-01-25T04:03:03.299Z,16.83
2023-01-25T04:06:07.861Z,15.50
2023-01-25T04:09:11.188Z,15.27
2023-01-25T04:12:17.964Z,14.93
2023-01-25T04:15:21.495Z,14.43
2023-01-25T04:18:25.187Z,17.20
2023-01-25T04:21:28.667Z,13.95
2023-01-25T04:24:32.359Z,15.20
2023-01-25T04:27:35.630Z,13.70
2023-01-25T04:30:46.744Z,13.93
2023-01-25T04:33:50.738Z,14.40
2023-01-25T04:36:56.130Z,13.18
2023-01-25T04:40:04.213Z,13.32
2023-01-25T04:43:19.620Z,12.67
2023-01-25T04:46:23.242Z,14.85
2023-01-25T04:49:26.538Z,15.38
2023-01-25T04:52:33.284Z,14.15
2023-01-25T04:55:37.455Z,14.03
2023-01-25T04:58:40.799Z,15.85
2023-01-25T05:01:44.173Z,16.35
2023-01-25T05:04:47.489Z,19.75
2023-01-25T05:07:51.016Z,14.93
2023-01-25T05:10:55.952Z,13.55
2023-01-25T05:14:06.566Z,15.60
2023-01-25T05:17:10.883Z,15.13
2023-01-25T05:20:14.334Z,13.23
2023-01-25T05:23:18.978Z,12.98
2023-01-25T05:26:40.563Z,14.15
2023-01-25T05:29:46.003Z,14.60
2023-01-25T05:32:50.429Z,14.83
2023-01-25T05:35:54.241Z,14.23
2023-01-25T05:38:58.107Z,14.57
2023-01-25T05:42:01.864Z,16.88
2023-01-25T05:45:05.621Z,17.53
2023-01-25T05:48:10.500Z,15.45
2023-01-25T05:51:16.011Z,14.05
2023-01-25T05:54:19.959Z,14.55
2023-01-25T05:57:32.338Z,15.73
2023-01-25T06:00:37.701Z,16.05
2023-01-25T06:03:41.126Z,15.88
2023-01-25T06:06:44.548Z,18.00
2023-01-25T06:09:47.743Z,14.18
2023-01-25T06:12:51.302Z,17.17
2023-01-25T06:15:58.215Z,16.95
2023-01-25T06:19:19.750Z,15.15
2023-01-25T06:22:36.588Z,18.88
2023-01-25T06:25:40.012Z,15.50
2023-01-25T06:28:43.990Z,20.63
2023-01-25T06:31:47.396Z,14.13
2023-01-25T06:34:53.018Z,18.35
2023-01-25T06:38:02.088Z,21.33
2023-01-25T06:41:11.128Z,15.53
2023-01-25T06:44:15.221Z,16.23
2023-01-25T06:47:20.534Z,19.58
2023-01-25T06:50:24.614Z,20.90
2023-01-25T06:53:29.607Z,15.02
2023-01-25T06:56:33.029Z,18.50
2023-01-25T06:59:36.453Z,15.68
2023-01-25T07:02:39.746Z,16.13
2023-01-25T07:05:43.167Z,15.80
2023-01-25T07:08:47.012Z,15.30
2023-01-25T07:11:51.497Z,16.37
2023-01-25T07:14:54.811Z,21.42
2023-01-25T07:18:05.598Z,15.65
2023-01-25T07:21:21.443Z,14.05
2023-01-25T07:24:28.860Z,15.23
2023-01-25T07:27:35.384Z,15.55
2023-01-25T07:30:38.869Z,15.90
2023-01-25T07:33:42.693Z,15.82
2023-01-25T07:36:47.067Z,15.82
2023-01-25T07:39:50.778Z,16.23
2023-01-25T07:42:54.233Z,19.00
2023-01-25T07:46:06.574Z,16.13
2023-01-25T07:49:09.754Z,15.97
2023-01-25T07:52:13.433Z,17.73
2023-01-25T07:55:17.020Z,17.73
2023-01-25T07:58:20.411Z,17.70
2023-01-25T08:01:26.486Z,18.57
2023-01-25T08:04:29.902Z,19.13
2023-01-25T08:07:35.120Z,19.38
2023-01-25T08:10:41.848Z,17.08
2023-01-25T08:13:46.356Z,18.25
2023-01-25T08:16:49.691Z,19.50
2023-01-25T08:19:52.912Z,17.98
2023-01-25T08:22:56.586Z,19.55
2023-01-25T08:26:04.661Z,17.85
2023-01-25T08:29:14.085Z,17.65
2023-01-25T08:32:17.811Z,14.20
2023-01-25T08:35:21.105Z,19.42
2023-01-25T08:38:24.773Z,14.57
2023-01-25T08:41:33.533Z,14.77
2023-01-25T08:44:51.243Z,12.20
2023-01-25T08:47:54.540Z,21.55
2023-01-25T08:50:59.573Z,17.48
2023-01-25T08:54:12.040Z,14.65
2023-01-25T08:57:15.313Z,20.15
2023-01-25T09:00:19.904Z,14.38
2023-01-25T09:03:23.715Z,19.75
2023-01-25T09:06:26.969Z,15.90
2023-01-25T09:09:30.489Z,13.13
2023-01-25T09:12:35.350Z,15.02
2023-01-25T09:15:38.986Z,14.63
2023-01-25T09:18:43.893Z,16.08
2023-01-25T09:21:48.442Z,12.23
2023-01-25T09:24:54.031Z,16.33
2023-01-25T09:27:57.618Z,12.77
2023-01-25T09:31:20.487Z,11.88
2023-01-25T09:34:48.023Z,14.20
2023-01-25T09:37:52.777Z,14.53
2023-01-25T09:41:42.917Z,12.48
2023-01-25T09:45:09.071Z,13.43
2023-01-25T09:48:32.175Z,13.48
2023-01-25T09:52:05.905Z,11.93
2023-01-25T09:55:18.313Z,12.47
2023-01-25T09:58:50.094Z,15.52
2023-01-25T10:02:10.371Z,11.77
2023-01-25T10:05:37.023Z,11.75
2023-01-25T10:09:05.743Z,10.60
2023-01-25T10:12:19.401Z,13.63
2023-01-25T10:15:34.242Z,12.07
2023-01-25T10:18:47.511Z,13.18
2023-01-25T10:21:57.346Z,9.82
2023-01-25T10:25:06.339Z,9.27
2023-01-25T10:28:30.009Z,10.02
2023-01-25T10:31:50.437Z,11.50
2023-01-25T10:34:58.281Z,10.60
2023-01-25T10:38:11.655Z,10.25
2023-01-25T10:41:43.060Z,9.73
2023-01-25T10:44:46.430Z,12.32
2023-01-25T10:47:57.964Z,13.55
2023-01-25T10:51:02.969Z,17.05
2023-01-25T10:54:14.314Z,11.75
2023-01-25T10:57:22.569Z,9.67
2023-01-25T11:00:42.377Z,11.75
2023-01-25T11:03:45.898Z,16.70
2023-01-25T11:06:52.680Z,10.95
2023-01-25T11:09:56.081Z,10.97
2023-01-25T11:13:42.003Z,11.55
2023-01-25T11:16:48.772Z,12.15
2023-01-25T11:20:15.799Z,12.13
2023-01-25T11:23:24.895Z,13.23
2023-01-25T11:26:31.091Z,11.17
2023-01-25T11:29:34.292Z,14.63
2023-01-25T11:32:39.893Z,13.63
2023-01-25T11:36:03.372Z,14.65
2023-01-25T11:39:29.932Z,15.65
2023-01-25T11:42:58.499Z,21.33
2023-01-25T11:46:28.390Z,14.05
2023-01-25T11:49:37.554Z,12.30
2023-01-25T11:53:33.939Z,16.85
2023-01-25T11:56:59.476Z,14.18
2023-01-25T12:00:41.321Z,14.83
2023-01-25T12:04:02.303Z,10.63
2023-01-25T12:07:10.664Z,13.40
2023-01-25T12:10:33.199Z,13.48
2023-01-25T12:13:48.468Z,17.67
2023-01-25T12:17:14.704Z,15.37
2023-01-25T12:20:53.535Z,15.10
2023-01-25T12:24:16.429Z,14.68
2023-01-25T12:27:38.600Z,13.95
2023-01-25T12:31:03.265Z,14.02
2023-01-25T12:34:19.585Z,12.07
2023-01-25T12:37:35.570Z,15.05
2023-01-25T12:41:08.457Z,15.57
2023-01-25T12:44:34.465Z,16.13
2023-01-25T12:47:45.769Z,21.17
2023-01-25T12:50:57.800Z,18.20
2023-01-25T12:54:03.969Z,15.30
2023-01-25T12:57:18.781Z,15.65
2023-01-25T13:00:32.677Z,15.93
2023-01-25T13:03:51.542Z,12.73
2023-01-25T13:07:07.573Z,17.10
2023-01-25T13:10:25.959Z,18.98
2023-01-25T13:13:30.449Z,14.30
2023-01-25T13:16:41.557Z,18.02
2023-01-25T13:19:44.958Z,18.17
2023-01-25T13:22:53.558Z,16.23
2023-01-25T13:26:21.890Z,19.67
2023-01-25T13:29:40.307Z,17.25
2023-01-25T13:32:52.091Z,13.98
2023-01-25T13:35:55.659Z,15.27
2023-01-25T13:38:59.070Z,13.70
2023-01-25T13:42:05.397Z,13.77
2023-01-25T13:45:19.617Z,15.10
2023-01-25T13:48:25.990Z,12.83
2023-01-25T13:51:33.571Z,14.80
2023-01-25T13:54:46.898Z,14.10
2023-01-25T13:57:51.544Z,15.18
2023-01-25T14:00:54.837Z,16.17
2023-01-25T14:04:02.259Z,16.47
2023-01-25T14:07:10.116Z,15.35
2023-01-25T14:10:27.928Z,14.82
2023-01-25T14:13:31.121Z,13.05
2023-01-25T14:16:34.338Z,15.13
2023-01-25T14:19:44.558Z,14.00
2023-01-25T14:22:49.978Z,11.10
2023-01-25T14:25:55.142Z,13.32
2023-01-25T14:29:01.614Z,18.08
2023-01-25T14:32:15.796Z,15.27
2023-01-25T14:36:15.837Z,12.03
2023-01-25T14:39:25.466Z,15.82
2023-01-25T14:42:33.631Z,13.93
2023-01-25T14:45:42.055Z,14.45
2023-01-25T14:48:45.725Z,17.30
2023-01-25T14:51:57.551Z,14.65
2023-01-25T14:55:01.049Z,15.07
2023-01-25T14:58:04.647Z,15.35
2023-01-25T15:01:23.100Z,14.95
2023-01-25T15:04:27.099Z,12.33
2023-01-25T15:07:41.415Z,15.35
2023-01-25T15:10:54.042Z,13.85
2023-01-25T15:14:07.588Z,13.73
2023-01-25T15:17:47.019Z,14.13
2023-01-25T15:20:55.635Z,11.77
2023-01-25T15:24:04.954Z,13.50
2023-01-25T15:27:11.634Z,15.95
2023-01-25T15:30:18.749Z,12.75
2023-01-25T15:33:28.605Z,18.87
2023-01-25T15:36:33.333Z,18.52
2023-01-25T15:39:36.580Z,13.50
2023-01-25T15:42:40.584Z,14.88
2023-01-25T15:45:49.453Z,11.23
2023-01-25T15:48:53.507Z,13.32
2023-01-25T15:51:57.029Z,15.77
2023-01-25T15:55:02.255Z,10.45
2023-01-25T15:58:05.868Z,18.13
2023-01-25T16:01:10.192Z,14.85
2023-01-25T16:04:14.211Z,13.73
2023-01-25T16:07:24.016Z,15.75
2023-01-25T16:10:28.717Z,12.05
2023-01-25T16:13:31.931Z,11.70
2023-01-25T16:16:43.099Z,13.48
2023-01-25T16:19:47.876Z,16.67
2023-01-25T16:22:51.292Z,14.35
2023-01-25T16:25:54.482Z,13.15
2023-01-25T16:28:57.747Z,14.73
2023-01-25T16:32:00.960Z,13.43
2023-01-25T16:35:04.340Z,13.55
2023-01-25T16:38:10.492Z,14.48
2023-01-25T16:41:15.236Z,13.88
2023-01-25T16:44:19.232Z,11.60
2023-01-25T16:47:22.744Z,18.40
2023-01-25T16:50:32.585Z,18.30
2023-01-25T16:53:35.876Z,16.67
2023-01-25T16:56:39.300Z,14.30
2023-01-25T16:59:42.780Z,15.43
2023-01-25T17:02:58.736Z,19.35
2023-01-25T17:06:03.119Z,18.38
2023-01-25T17:09:21.619Z,20.58
2023-01-25T17:12:26.703Z,23.75
2023-01-25T17:15:30.247Z,23.27
2023-01-25T17:18:34.393Z,21.40
2023-01-25T17:21:43.979Z,19.35
2023-01-25T17:24:47.195Z,23.67
2023-01-25T17:27:50.408Z,22.38
2023-01-25T17:30:55.502Z,21.50
2023-01-25T17:34:02.715Z,23.02
2023-01-25T17:37:06.068Z,24.10
2023-01-25T17:40:10.434Z,24.63
2023-01-25T17:43:15.564Z,25.50
2023-01-25T17:46:27.890Z,27.10
2023-01-25T17:49:31.638Z,24.63
2023-01-25T17:52:35.168Z,27.17
2023-01-25T17:55:39.065Z,24.23
2023-01-25T17:58:42.808Z,25.77
2023-01-25T18:01:46.967Z,22.90
2023-01-25T18:04:50.134Z,21.85
2023-01-25T18:07:54.568Z,20.10
2023-01-25T18:11:00.397Z,25.52
2023-01-25T18:14:09.649Z,23.57
2023-01-25T18:17:13.237Z,22.23
2023-01-25T18:20:16.777Z,23.17
2023-01-25T18:23:20.596Z,26.23
2023-01-25T18:26:30.108Z,28.93
2023-01-25T18:29:47.699Z,26.58
2023-01-25T18:32:51.135Z,25.48
2023-01-25T18:35:55.269Z,24.60
2023-01-25T18:39:00.361Z,22.65
2023-01-25T18:42:04.450Z,27.20
2023-01-25T18:45:09.414Z,25.13
2023-01-25T18:48:13.534Z,25.05
2023-01-25T18:51:17.960Z,25.15
2023-01-25T18:54:21.575Z,31.52
2023-01-25T18:57:25.089Z,28.67
2023-01-25T19:00:30.794Z,30.17
2023-01-25T19:03:34.772Z,30.38
2023-01-25T19:06:38.285Z,28.70
2023-01-25T19:09:44.869Z,25.48
2023-01-25T19:12:48.452Z,27.23
2023-01-25T19:16:01.254Z,24.67
2023-01-25T19:19:04.782Z,22.50
2023-01-25T19:22:08.178Z,25.20
2023-01-25T19:25:11.850Z,24.57
2023-01-25T19:28:15.774Z,21.45
2023-01-25T19:31:22.845Z,25.67
2023-01-25T19:34:26.189Z,22.38
2023-01-25T19:37:32.427Z,24.97
2023-01-25T19:40:36.793Z,27.10
2023-01-25T19:43:43.811Z,32.78
2023-01-25T19:46:47.983Z,29.35
2023-01-25T19:49:54.734Z,23.83
2023-01-25T19:52:58.300Z,24.60
2023-01-25T19:56:05.837Z,27.60
2023-01-25T19:59:21.659Z,25.77
2023-01-25T20:02:25.444Z,28.63
2023-01-25T20:05:30.138Z,26.85
2023-01-25T20:08:36.382Z,25.38
2023-01-25T20:11:39.920Z,27.98
2023-01-25T20:14:44.517Z,22.77
2023-01-25T20:17:47.693Z,27.52
2023-01-25T20:20:56.392Z,25.23
2023-01-25T20:24:04.320Z,24.67
2023-01-25T20:27:07.825Z,30.27
2023-01-25T20:30:12.756Z,23.70
2023-01-25T20:33:18.249Z,23.02
2023-01-25T20:36:22.342Z,25.70
2023-01-25T20:39:25.535Z,24.38
2023-01-25T20:42:29.057Z,27.67
2023-01-25T20:45:32.597Z,25.30
2023-01-25T20:48:37.085Z,24.47
2023-01-25T20:51:42.917Z,25.05
2023-01-25T20:54:46.251Z,28.60
2023-01-25T20:57:49.412Z,31.02
2023-01-25T21:00:55.369Z,25.73
2023-01-25T21:03:59.130Z,25.80
2023-01-25T21:07:02.717Z,25.30
2023-01-25T21:10:07.029Z,29.48
2023-01-25T21:13:10.468Z,28.43
2023-01-25T21:16:15.224Z,28.15
2023-01-25T21:19:18.712Z,31.10
2023-01-25T21:22:22.046Z,25.80
2023-01-25T21:25:25.650Z,28.50
2023-01-25T21:28:29.351Z,28.77
2023-01-25T21:31:39.179Z,31.38
2023-01-25T21:34:42.809Z,27.67
2023-01-25T21:37:46.233Z,25.67
2023-01-25T21:40:49.856Z,23.95
2023-01-25T21:44:13.478Z,20.38
2023-01-25T21:47:29.398Z,22.55
2023-01-25T21:50:56.732Z,22.93
2023-01-25T21:54:00.355Z,25.50
2023-01-25T21:57:08.524Z,27.00
2023-01-25T22:00:16.236Z,26.83
2023-01-25T22:03:20.156Z,24.40
2023-01-25T22:06:23.653Z,28.02
2023-01-25T22:09:27.144Z,28.02
2023-01-25T22:12:30.447Z,23.58
2023-01-25T22:15:34.117Z,24.23
2023-01-25T22:18:42.146Z,29.38
2023-01-25T22:21:46.226Z,24.52
2023-01-25T22:24:49.661Z,28.25
2023-01-25T22:27:59.884Z,27.37
2023-01-25T22:31:03.465Z,27.13
2023-01-25T22:34:06.900Z,26.52
2023-01-25T22:37:12.235Z,22.65
2023-01-25T22:40:15.544Z,27.73
2023-01-25T22:43:19.941Z,26.33
2023-01-25T22:46:24.729Z,23.05
2023-01-25T22:49:27.823Z,23.30
2023-01-25T22:52:30.899Z,23.00
2023-01-25T22:55:34.058Z,25.95
2023-01-25T22:58:41.930Z,23.50
2023-01-25T23:01:45.406Z,23.30
2023-01-25T23:04:48.498Z,20.50
2023-01-25T23:07:51.690Z,21.50
2023-01-25T23:11:04.057Z,19.13
2023-01-25T23:14:29.649Z,21.70
2023-01-25T23:17:51.907Z,23.27
2023-01-25T23:20:57.050Z,21.70
2023-01-25T23:24:01.491Z,18.17
2023-01-25T23:27:05.939Z,23.02
2023-01-25T23:30:10.777Z,22.90
2023-01-25T23:33:14.706Z,21.98
2023-01-25T23:36:23.097Z,23.10
2023-01-25T23:39:27.114Z,22.05
2023-01-25T23:42:30.474Z,20.43
2023-01-25T23:45:33.701Z,28.42
2023-01-25T23:48:37.336Z,22.10
2023-01-25T23:51:40.535Z,26.33
2023-01-25T23:54:43.978Z,25.98
2023-01-25T23:57:47.160Z,26.20
